createdAt,value
2017-09-07T00:01:37.622Z,12.30
2017-09-07T00:04:04.066Z,12.40
2017-09-07T00:06:31.278Z,12.30
2017-09-07T00:08:57.715Z,12.30
2017-09-07T00:11:24.152Z,12.30
2017-09-07T00:13:50.565Z,12.30
2017-09-07T00:16:17.026Z,12.30
2017-09-07T00:18:43.544Z,12.50
2017-09-07T00:21:09.958Z,12.50
2017-09-07T00:23:36.374Z,12.50
2017-09-07T00:26:02.833Z,12.40
2017-09-07T00:28:29.313Z,12.50
2017-09-07T00:30:55.757Z,12.50
2017-09-07T00:33:22.932Z,12.60
2017-09-07T00:35:49.497Z,12.60
2017-09-07T00:38:15.962Z,12.50
2017-09-07T00:40:43.149Z,12.60
2017-09-07T00:43:09.637Z,12.60
2017-09-07T00:45:36.880Z,12.60
2017-09-07T00:48:03.337Z,12.60
2017-09-07T00:50:29.794Z,12.60
2017-09-07T00:52:56.297Z,12.60
2017-09-07T00:55:23.514Z,12.30
2017-09-07T00:57:49.965Z,12.30
2017-09-07T01:00:16.437Z,12.30
2017-09-07T01:02:42.893Z,12.30
2017-09-07T01:05:09.397Z,12.30
2017-09-07T01:07:35.920Z,12.50
2017-09-07T01:10:02.407Z,12.50
2017-09-07T01:12:28.853Z,12.40
2017-09-07T01:14:55.351Z,12.50
2017-09-07T01:17:21.854Z,12.50
2017-09-07T01:19:48.290Z,12.50
2017-09-07T01:22:15.537Z,12.40
2017-09-07T01:24:42.793Z,12.40
2017-09-07T01:27:10.021Z,12.40
2017-09-07T01:29:37.228Z,12.40
2017-09-07T01:32:04.450Z,12.40
2017-09-07T01:34:30.925Z,12.30
2017-09-07T01:36:57.342Z,12.40
2017-09-07T01:39:23.810Z,12.40
2017-09-07T01:41:50.265Z,12.30
2017-09-07T01:44:16.662Z,12.40
2017-09-07T01:46:43.113Z,12.30
2017-09-07T01:49:09.520Z,12.40
2017-09-07T01:51:36.010Z,12.30
2017-09-07T01:54:02.472Z,12.50
2017-09-07T01:56:29.625Z,12.50
2017-09-07T01:58:56.073Z,12.40
2017-09-07T02:01:22.510Z,12.40
2017-09-07T02:03:49.068Z,12.50
2017-09-07T02:06:15.549Z,12.50
2017-09-07T02:08:41.985Z,12.50
2017-09-07T02:11:08.464Z,12.40
2017-09-07T02:13:34.897Z,12.40
2017-09-07T02:16:01.328Z,12.40
2017-09-07T02:18:27.738Z,12.40
2017-09-07T02:20:54.173Z,12.50
2017-09-07T02:23:20.620Z,12.40
2017-09-07T02:25:47.064Z,12.20
2017-09-07T02:28:13.537Z,12.20
2017-09-07T02:30:39.958Z,12.20
2017-09-07T02:33:06.409Z,12.10
2017-09-07T02:35:32.838Z,11.90
2017-09-07T02:37:59.988Z,12.10
2017-09-07T02:40:26.460Z,12.20
2017-09-07T02:42:52.860Z,12.10
2017-09-07T02:45:20.021Z,12.00
2017-09-07T02:47:46.522Z,12.00
2017-09-07T02:50:12.958Z,11.90
2017-09-07T02:52:40.148Z,12.00
2017-09-07T02:55:06.589Z,12.00
2017-09-07T02:57:33.021Z,11.90
2017-09-07T02:59:59.450Z,11.90
2017-09-07T03:02:25.898Z,11.70
2017-09-07T03:04:52.314Z,11.60
2017-09-07T03:07:18.737Z,11.50
2017-09-07T03:09:45.179Z,11.30
2017-09-07T03:12:11.609Z,11.10
2017-09-07T03:14:38.021Z,11.30
2017-09-07T03:17:05.188Z,11.10
2017-09-07T03:19:31.618Z,11.10
2017-09-07T03:21:58.124Z,11.30
2017-09-07T03:24:24.557Z,11.30
2017-09-07T03:26:51.041Z,11.30
2017-09-07T03:29:17.453Z,11.10
2017-09-07T03:31:43.888Z,11.30
2017-09-07T03:34:10.365Z,11.40
2017-09-07T03:36:36.851Z,11.50
2017-09-07T03:39:03.411Z,11.50
2017-09-07T03:41:29.856Z,11.60
2017-09-07T03:43:57.031Z,11.70
2017-09-07T03:46:23.510Z,11.70
2017-09-07T03:48:49.930Z,11.70
2017-09-07T03:51:16.456Z,11.50
2017-09-07T03:53:43.649Z,11.70
2017-09-07T03:56:10.155Z,11.70
2017-09-07T03:58:36.585Z,11.80
2017-09-07T04:01:03.041Z,11.80
2017-09-07T04:03:29.509Z,11.80
2017-09-07T04:05:55.956Z,11.90
2017-09-07T04:08:23.134Z,12.00
2017-09-07T04:10:49.581Z,11.90
2017-09-07T04:13:15.985Z,11.90
2017-09-07T04:15:43.151Z,12.00
2017-09-07T04:18:09.597Z,11.90
2017-09-07T04:20:36.042Z,12.00
2017-09-07T04:23:02.448Z,12.00
2017-09-07T04:25:28.882Z,11.90
2017-09-07T04:27:55.314Z,12.00
2017-09-07T04:30:21.722Z,12.00
2017-09-07T04:32:48.217Z,12.00
2017-09-07T04:35:14.732Z,12.00
2017-09-07T04:37:41.145Z,11.90
2017-09-07T04:40:07.589Z,12.00
2017-09-07T04:42:34.014Z,11.90
2017-09-07T04:45:01.155Z,12.10
2017-09-07T04:47:28.353Z,12.00
2017-09-07T04:49:54.778Z,12.00
2017-09-07T04:52:21.217Z,12.10
2017-09-07T04:54:47.636Z,12.10
2017-09-07T04:57:14.066Z,12.10
2017-09-07T04:59:40.505Z,12.00
2017-09-07T05:02:06.990Z,12.10
2017-09-07T05:04:34.160Z,12.10
2017-09-07T05:07:00.622Z,12.00
2017-09-07T05:09:27.027Z,12.10
2017-09-07T05:11:54.257Z,12.10
2017-09-07T05:14:20.690Z,12.00
2017-09-07T05:16:47.835Z,12.00
2017-09-07T05:19:14.384Z,12.00
2017-09-07T05:21:41.543Z,11.70
2017-09-07T05:24:07.945Z,11.70
2017-09-07T05:26:35.125Z,11.60
2017-09-07T05:29:01.589Z,11.60
2017-09-07T05:31:28.041Z,11.70
2017-09-07T05:33:54.477Z,11.90
2017-09-07T05:36:20.885Z,11.90
2017-09-07T05:38:47.330Z,11.90
2017-09-07T05:41:13.740Z,12.00
2017-09-07T05:43:40.162Z,12.00
2017-09-07T05:46:06.631Z,12.00
2017-09-07T05:48:33.090Z,12.10
2017-09-07T05:51:00.270Z,12.20
2017-09-07T05:53:26.720Z,12.10
2017-09-07T05:55:53.199Z,12.20
2017-09-07T05:58:19.601Z,12.30
2017-09-07T06:00:46.041Z,12.20
2017-09-07T06:03:12.493Z,12.20
2017-09-07T06:05:38.921Z,12.20
2017-09-07T06:08:05.362Z,12.40
2017-09-07T06:10:32.616Z,12.50
2017-09-07T06:12:59.074Z,12.50
2017-09-07T06:15:25.533Z,12.50
2017-09-07T06:17:51.969Z,12.50
2017-09-07T06:20:18.406Z,12.60
2017-09-07T06:22:44.837Z,12.90
2017-09-07T06:25:11.296Z,13.00
2017-09-07T06:27:37.740Z,13.20
2017-09-07T06:30:04.165Z,13.20
2017-09-07T06:32:30.620Z,13.30
2017-09-07T06:34:57.019Z,13.30
2017-09-07T06:37:23.491Z,13.30
2017-09-07T06:39:49.989Z,13.20
2017-09-07T06:42:16.413Z,13.00
2017-09-07T06:44:42.900Z,13.00
2017-09-07T06:47:09.297Z,13.00
2017-09-07T06:49:35.759Z,13.00
2017-09-07T06:52:02.924Z,13.10
2017-09-07T06:54:29.346Z,13.10
2017-09-07T06:56:55.870Z,13.10
2017-09-07T06:59:22.301Z,13.10
2017-09-07T07:01:49.475Z,13.30
2017-09-07T07:04:15.931Z,13.30
2017-09-07T07:06:42.377Z,13.40
2017-09-07T07:09:08.817Z,13.40
2017-09-07T07:11:35.270Z,13.50
2017-09-07T07:14:02.492Z,13.70
2017-09-07T07:16:28.905Z,13.70
2017-09-07T07:18:55.374Z,14.00
2017-09-07T07:21:21.783Z,14.30
2017-09-07T07:23:48.202Z,14.30
2017-09-07T07:26:14.681Z,14.30
2017-09-07T07:28:41.088Z,14.40
2017-09-07T07:31:07.514Z,14.50
2017-09-07T07:33:33.975Z,14.70
2017-09-07T07:36:00.445Z,14.70
2017-09-07T07:38:27.644Z,15.00
2017-09-07T07:40:54.138Z,14.90
2017-09-07T07:43:20.573Z,14.90
2017-09-07T07:45:47.014Z,15.00
2017-09-07T07:48:13.521Z,14.90
2017-09-07T07:50:40.773Z,14.70
2017-09-07T07:53:07.949Z,14.90
2017-09-07T07:55:34.383Z,14.80
2017-09-07T07:58:00.858Z,14.90
2017-09-07T08:00:27.290Z,15.00
2017-09-07T08:02:53.785Z,15.10
2017-09-07T08:05:20.250Z,15.30
2017-09-07T08:07:47.451Z,15.40
2017-09-07T08:10:14.663Z,15.50
2017-09-07T08:12:41.094Z,15.50
2017-09-07T08:15:07.546Z,15.30
2017-09-07T08:17:34.736Z,15.60
2017-09-07T08:20:01.201Z,15.60
2017-09-07T08:22:27.632Z,15.60
2017-09-07T08:24:54.106Z,15.60
2017-09-07T08:27:21.293Z,15.70
2017-09-07T08:29:47.749Z,15.60
2017-09-07T08:32:14.246Z,15.60
2017-09-07T08:34:40.686Z,15.60
2017-09-07T08:37:07.138Z,15.60
2017-09-07T08:39:33.617Z,15.70
2017-09-07T08:42:00.825Z,16.00
2017-09-07T08:44:27.273Z,15.90
2017-09-07T08:46:53.740Z,16.20
2017-09-07T08:49:20.914Z,16.60
2017-09-07T08:51:47.382Z,16.60
2017-09-07T08:54:13.849Z,16.40
2017-09-07T08:56:41.096Z,16.30
2017-09-07T08:59:08.352Z,16.50
2017-09-07T09:01:35.561Z,16.70
2017-09-07T09:04:01.997Z,16.70
2017-09-07T09:06:28.472Z,17.10
2017-09-07T09:08:54.898Z,16.80
2017-09-07T09:11:21.376Z,16.60
2017-09-07T09:13:47.817Z,16.40
2017-09-07T09:16:14.263Z,16.30
2017-09-07T09:18:40.784Z,16.20
2017-09-07T09:21:07.206Z,16.10
2017-09-07T09:23:33.675Z,16.20
2017-09-07T09:26:00.174Z,16.20
2017-09-07T09:28:26.584Z,16.20
2017-09-07T09:30:53.745Z,17.20
2017-09-07T09:33:20.229Z,17.20
2017-09-07T09:35:47.516Z,18.00
2017-09-07T09:38:13.989Z,17.90
2017-09-07T09:40:40.444Z,18.30
2017-09-07T09:43:07.106Z,19.10
2017-09-07T09:45:33.634Z,19.60
2017-09-07T09:48:00.887Z,19.50
2017-09-07T09:50:27.415Z,19.50
2017-09-07T09:52:53.853Z,19.20
2017-09-07T09:55:20.305Z,19.70
2017-09-07T09:57:47.458Z,21.20
2017-09-07T10:00:14.660Z,21.60
2017-09-07T10:02:41.149Z,21.60
2017-09-07T10:05:08.358Z,21.90
2017-09-07T10:07:34.807Z,21.80
2017-09-07T10:10:02.071Z,21.60
2017-09-07T10:12:28.502Z,21.50
2017-09-07T10:14:55.685Z,20.70
2017-09-07T10:17:22.127Z,20.70
2017-09-07T10:19:48.575Z,20.50
2017-09-07T10:22:14.988Z,20.00
2017-09-07T10:24:41.624Z,19.90
2017-09-07T10:27:08.028Z,19.40
2017-09-07T10:29:35.924Z,18.60
2017-09-07T10:32:03.305Z,18.20
2017-09-07T10:34:29.765Z,18.20
2017-09-07T10:36:56.201Z,18.10
2017-09-07T10:39:22.634Z,18.30
2017-09-07T10:41:49.090Z,18.30
2017-09-07T10:44:15.663Z,18.30
2017-09-07T10:46:42.079Z,18.30
2017-09-07T10:49:08.519Z,18.30
2017-09-07T10:51:34.966Z,18.30
2017-09-07T10:54:01.460Z,18.40
2017-09-07T10:56:27.931Z,18.00
2017-09-07T10:58:54.401Z,17.80
2017-09-07T11:01:21.587Z,18.10
2017-09-07T11:03:48.061Z,18.10
2017-09-07T11:06:14.482Z,18.10
2017-09-07T11:08:40.896Z,18.50
2017-09-07T11:11:07.385Z,18.40
2017-09-07T11:13:33.833Z,18.30
2017-09-07T11:16:00.977Z,18.10
2017-09-07T11:18:27.453Z,18.10
2017-09-07T11:20:53.890Z,18.40
2017-09-07T11:23:20.313Z,18.30
2017-09-07T11:25:46.756Z,18.40
2017-09-07T11:28:13.191Z,18.70
2017-09-07T11:30:40.399Z,18.90
2017-09-07T11:33:06.862Z,18.90
2017-09-07T11:35:33.515Z,19.10
2017-09-07T11:37:59.955Z,18.80
2017-09-07T11:40:26.373Z,18.90
2017-09-07T11:42:52.826Z,19.10
2017-09-07T11:45:19.263Z,19.00
2017-09-07T11:47:45.702Z,18.90
2017-09-07T11:50:12.181Z,19.10
2017-09-07T11:52:38.655Z,18.90
2017-09-07T11:55:05.085Z,18.90
2017-09-07T11:57:31.547Z,19.10
2017-09-07T11:59:58.069Z,19.10
2017-09-07T12:02:24.517Z,19.00
2017-09-07T12:04:51.690Z,19.10
2017-09-07T12:07:18.142Z,19.10
2017-09-07T12:09:44.630Z,19.10
2017-09-07T12:12:11.065Z,19.10
2017-09-07T12:14:37.488Z,19.10
2017-09-07T12:17:03.935Z,19.10
2017-09-07T12:19:30.490Z,19.10
2017-09-07T12:21:56.913Z,19.10
2017-09-07T12:24:24.058Z,19.00
2017-09-07T12:26:50.511Z,19.00
2017-09-07T12:29:17.688Z,19.10
2017-09-07T12:31:44.099Z,19.10
2017-09-07T12:34:10.561Z,19.20
2017-09-07T12:36:37.029Z,18.90
2017-09-07T12:39:04.238Z,19.10
2017-09-07T12:41:30.689Z,19.10
2017-09-07T12:43:57.106Z,19.20
2017-09-07T12:46:23.556Z,19.30
2017-09-07T12:48:50.026Z,19.30
2017-09-07T12:51:17.285Z,19.00
2017-09-07T12:53:43.763Z,19.00
2017-09-07T12:56:10.189Z,19.10
2017-09-07T12:58:36.638Z,19.00
2017-09-07T13:01:03.061Z,19.10
2017-09-07T13:03:29.479Z,18.90
2017-09-07T13:05:55.914Z,19.10
2017-09-07T13:08:22.402Z,19.10
2017-09-07T13:10:49.630Z,18.90
2017-09-07T13:13:16.092Z,18.90
2017-09-07T13:15:42.529Z,18.60
2017-09-07T13:18:09.718Z,18.60
2017-09-07T13:20:36.209Z,18.60
2017-09-07T13:23:02.750Z,18.60
2017-09-07T13:25:29.941Z,18.30
2017-09-07T13:27:56.424Z,18.30
2017-09-07T13:30:23.634Z,18.40
2017-09-07T13:32:50.074Z,18.40
2017-09-07T13:35:16.523Z,18.40
2017-09-07T13:37:42.950Z,18.30
2017-09-07T13:40:09.365Z,18.10
2017-09-07T13:42:35.873Z,18.30
2017-09-07T13:45:02.305Z,18.50
2017-09-07T13:47:28.714Z,18.60
2017-09-07T13:49:55.930Z,18.50
2017-09-07T13:52:22.344Z,18.60
2017-09-07T13:54:48.798Z,18.50
2017-09-07T13:57:15.266Z,18.50
2017-09-07T13:59:42.462Z,18.70
2017-09-07T14:02:08.919Z,18.70
2017-09-07T14:04:35.350Z,18.80
2017-09-07T14:07:01.831Z,18.40
2017-09-07T14:09:28.270Z,18.50
2017-09-07T14:11:54.759Z,18.50
2017-09-07T14:14:21.189Z,18.40
2017-09-07T14:16:47.628Z,18.40
2017-09-07T14:19:14.064Z,18.40
2017-09-07T14:21:40.489Z,18.20
2017-09-07T14:24:06.978Z,18.40
2017-09-07T14:26:33.442Z,18.30
2017-09-07T14:29:00.604Z,18.40
2017-09-07T14:31:27.781Z,18.60
2017-09-07T14:33:54.954Z,18.50
2017-09-07T14:36:21.401Z,18.30
2017-09-07T14:38:47.861Z,18.40
2017-09-07T14:41:14.270Z,18.60
2017-09-07T14:43:40.709Z,18.70
2017-09-07T14:46:07.146Z,18.60
2017-09-07T14:48:33.588Z,18.50
2017-09-07T14:50:59.998Z,18.40
2017-09-07T14:53:26.446Z,18.50
2017-09-07T14:55:52.866Z,18.50
2017-09-07T14:58:19.321Z,18.40
2017-09-07T15:00:45.826Z,18.40
2017-09-07T15:03:12.305Z,18.50
2017-09-07T15:05:39.473Z,18.70
2017-09-07T15:08:06.661Z,18.70
2017-09-07T15:10:33.115Z,18.70
2017-09-07T15:12:59.581Z,18.70
2017-09-07T15:15:26.017Z,18.80
2017-09-07T15:17:52.457Z,18.80
2017-09-07T15:20:19.626Z,18.60
2017-09-07T15:22:47.019Z,18.50
2017-09-07T15:25:14.223Z,18.50
2017-09-07T15:27:41.451Z,18.50
2017-09-07T15:30:07.957Z,18.40
2017-09-07T15:32:35.336Z,18.30
2017-09-07T15:35:02.009Z,18.20
2017-09-07T15:37:28.628Z,18.30
2017-09-07T15:39:56.009Z,18.10
2017-09-07T15:42:22.637Z,18.10
2017-09-07T15:44:49.286Z,18.10
2017-09-07T15:47:15.757Z,18.10
2017-09-07T15:49:42.711Z,18.10
2017-09-07T15:52:09.398Z,18.10
2017-09-07T15:54:35.839Z,18.00
2017-09-07T15:57:03.473Z,18.10
2017-09-07T15:59:29.979Z,18.10
2017-09-07T16:01:56.639Z,17.80
2017-09-07T16:04:24.338Z,17.90
2017-09-07T16:06:51.095Z,17.80
2017-09-07T16:09:17.690Z,17.80
2017-09-07T16:11:44.287Z,17.80
2017-09-07T16:14:11.655Z,17.80
2017-09-07T16:16:38.142Z,17.70
2017-09-07T16:19:04.721Z,17.60
2017-09-07T16:21:31.211Z,17.70
2017-09-07T16:23:58.537Z,17.80
2017-09-07T16:26:25.812Z,17.80
2017-09-07T16:28:53.289Z,17.60
2017-09-07T16:31:20.514Z,17.50
2017-09-07T16:33:46.981Z,17.50
2017-09-07T16:36:13.449Z,17.40
2017-09-07T16:38:39.895Z,17.40
2017-09-07T16:41:07.066Z,17.20
2017-09-07T16:43:33.513Z,17.10
2017-09-07T16:45:59.950Z,17.20
2017-09-07T16:48:26.407Z,17.30
2017-09-07T16:50:52.894Z,17.20
2017-09-07T16:53:19.361Z,17.00
2017-09-07T16:55:45.785Z,17.10
2017-09-07T16:58:12.221Z,17.00
2017-09-07T17:00:39.413Z,17.20
2017-09-07T17:03:05.877Z,17.10
2017-09-07T17:05:32.340Z,17.10
2017-09-07T17:07:58.877Z,17.10
2017-09-07T17:10:25.298Z,17.10
2017-09-07T17:12:51.743Z,17.00
2017-09-07T17:15:18.169Z,16.90
2017-09-07T17:17:44.623Z,16.70
2017-09-07T17:20:11.074Z,16.80
2017-09-07T17:22:38.256Z,16.80
2017-09-07T17:25:04.690Z,16.80
2017-09-07T17:27:31.170Z,16.70
2017-09-07T17:29:57.631Z,16.80
2017-09-07T17:32:24.108Z,16.60
2017-09-07T17:34:50.555Z,16.50
2017-09-07T17:37:16.979Z,16.60
2017-09-07T17:39:43.446Z,16.50
2017-09-07T17:42:09.877Z,16.40
2017-09-07T17:44:36.340Z,16.50
2017-09-07T17:47:03.530Z,16.30
2017-09-07T17:49:30.058Z,16.30
2017-09-07T17:51:56.510Z,16.30
2017-09-07T17:54:22.944Z,16.20
2017-09-07T17:56:49.583Z,16.20
2017-09-07T17:59:16.243Z,16.10
2017-09-07T18:01:42.912Z,16.10
2017-09-07T18:04:09.419Z,16.10
2017-09-07T18:06:36.623Z,15.90
2017-09-07T18:09:03.169Z,16.00
2017-09-07T18:11:29.610Z,15.70
2017-09-07T18:13:56.058Z,15.70
2017-09-07T18:16:23.230Z,15.80
2017-09-07T18:18:50.422Z,15.70
2017-09-07T18:21:17.265Z,15.70
2017-09-07T18:23:44.055Z,15.70
2017-09-07T18:26:10.551Z,15.60
2017-09-07T18:28:37.787Z,14.40
2017-09-07T18:31:04.279Z,14.30
2017-09-07T18:33:30.769Z,14.20
2017-09-07T18:35:57.242Z,14.30
2017-09-07T18:38:23.689Z,14.20
2017-09-07T18:40:50.195Z,14.20
2017-09-07T18:43:16.659Z,13.90
2017-09-07T18:45:43.122Z,13.40
2017-09-07T18:48:09.591Z,12.80
2017-09-07T18:50:36.863Z,12.30
2017-09-07T18:53:03.353Z,12.40
2017-09-07T18:55:29.758Z,12.30
2017-09-07T18:57:56.226Z,12.60
2017-09-07T19:00:23.440Z,12.80
2017-09-07T19:02:49.940Z,12.70
2017-09-07T19:05:17.087Z,12.50
2017-09-07T19:07:43.547Z,12.50
2017-09-07T19:10:09.982Z,12.40
2017-09-07T19:12:36.426Z,12.50
2017-09-07T19:15:02.909Z,12.70
2017-09-07T19:17:29.387Z,12.70
2017-09-07T19:19:55.875Z,12.70
2017-09-07T19:22:22.329Z,12.60
2017-09-07T19:24:49.547Z,12.00
2017-09-07T19:27:15.993Z,11.90
2017-09-07T19:29:42.462Z,11.90
2017-09-07T19:32:08.928Z,12.00
2017-09-07T19:34:35.438Z,12.00
2017-09-07T19:37:01.931Z,11.80
2017-09-07T19:39:28.353Z,11.40
2017-09-07T19:41:54.819Z,11.50
2017-09-07T19:44:21.254Z,11.40
2017-09-07T19:46:47.722Z,11.50
2017-09-07T19:49:14.207Z,11.50
2017-09-07T19:51:40.705Z,11.20
2017-09-07T19:54:07.150Z,11.10
2017-09-07T19:56:34.399Z,10.90
2017-09-07T19:59:00.870Z,10.90
2017-09-07T20:01:28.077Z,10.80
2017-09-07T20:03:54.544Z,10.80
2017-09-07T20:06:21.788Z,10.50
2017-09-07T20:08:48.262Z,10.50
2017-09-07T20:11:14.786Z,10.40
2017-09-07T20:13:41.260Z,10.30
2017-09-07T20:16:08.480Z,10.40
2017-09-07T20:18:34.945Z,10.60
2017-09-07T20:21:01.375Z,10.30
2017-09-07T20:23:27.846Z,10.30
2017-09-07T20:25:55.031Z,10.20
2017-09-07T20:28:21.483Z,10.20
2017-09-07T20:30:47.962Z,10.20
2017-09-07T20:33:15.166Z,10.20
2017-09-07T20:35:41.588Z,10.20
2017-09-07T20:38:08.042Z,10.30
2017-09-07T20:40:34.469Z,10.20
2017-09-07T20:43:00.949Z,10.10
2017-09-07T20:45:28.161Z,10.20
2017-09-07T20:47:54.678Z,10.30
2017-09-07T20:50:21.143Z,10.30
2017-09-07T20:52:47.658Z,10.30
2017-09-07T20:55:14.101Z,10.20
2017-09-07T20:57:40.538Z,10.10
2017-09-07T21:00:06.974Z,10.00
2017-09-07T21:02:34.179Z,10.00
2017-09-07T21:05:00.664Z,9.90
2017-09-07T21:07:27.085Z,10.00
2017-09-07T21:09:53.561Z,9.90
2017-09-07T21:12:20.749Z,9.90
2017-09-07T21:14:47.231Z,9.80
2017-09-07T21:17:13.678Z,9.80
2017-09-07T21:19:40.854Z,9.80
2017-09-07T21:22:07.377Z,9.80
2017-09-07T21:24:33.852Z,9.80
2017-09-07T21:27:00.303Z,9.80
2017-09-07T21:29:26.767Z,9.90
2017-09-07T21:31:54.039Z,10.10
2017-09-07T21:34:20.497Z,10.20
2017-09-07T21:36:46.962Z,10.40
2017-09-07T21:39:13.442Z,10.20
2017-09-07T21:41:39.862Z,10.10
2017-09-07T21:44:06.330Z,10.00
2017-09-07T21:46:32.743Z,10.20
2017-09-07T21:48:59.230Z,10.30
2017-09-07T21:51:25.678Z,10.40
2017-09-07T21:53:52.904Z,10.50
2017-09-07T21:56:19.418Z,10.50
2017-09-07T21:58:45.907Z,10.60
2017-09-07T22:01:12.369Z,10.40
2017-09-07T22:03:38.831Z,10.30
2017-09-07T22:06:05.418Z,10.20
2017-09-07T22:08:31.852Z,9.90
2017-09-07T22:10:58.314Z,9.90
2017-09-07T22:13:24.802Z,9.80
2017-09-07T22:15:51.242Z,9.90
2017-09-07T22:18:17.786Z,9.90
2017-09-07T22:20:44.234Z,9.90
2017-09-07T22:23:10.686Z,9.70
2017-09-07T22:25:37.123Z,9.60
2017-09-07T22:28:03.541Z,9.70
2017-09-07T22:30:30.050Z,9.50
2017-09-07T22:32:56.468Z,9.40
2017-09-07T22:35:22.981Z,9.30
2017-09-07T22:37:50.292Z,9.30
2017-09-07T22:40:16.738Z,9.30
2017-09-07T22:42:43.182Z,9.40
2017-09-07T22:45:09.617Z,9.20
2017-09-07T22:47:36.862Z,9.10
2017-09-07T22:50:03.292Z,9.10
2017-09-07T22:52:29.705Z,9.00
2017-09-07T22:54:56.169Z,9.00
2017-09-07T22:57:22.601Z,8.90
2017-09-07T22:59:49.061Z,9.00
2017-09-07T23:02:16.253Z,9.00
2017-09-07T23:04:42.728Z,9.00
2017-09-07T23:07:09.972Z,9.10
2017-09-07T23:09:37.225Z,9.10
2017-09-07T23:12:03.662Z,9.10
2017-09-07T23:14:30.089Z,9.10
2017-09-07T23:16:57.324Z,9.00
2017-09-07T23:19:23.779Z,9.00
2017-09-07T23:21:50.221Z,9.10
2017-09-07T23:24:17.502Z,9.30
2017-09-07T23:26:44.002Z,9.40
2017-09-07T23:29:10.417Z,9.20
2017-09-07T23:31:36.855Z,9.00
2017-09-07T23:34:03.315Z,8.80
2017-09-07T23:36:30.484Z,9.10
2017-09-07T23:38:57.681Z,8.90
2017-09-07T23:41:24.104Z,8.90
2017-09-07T23:43:50.539Z,9.10
2017-09-07T23:46:17.009Z,9.20
2017-09-07T23:48:44.233Z,9.20
2017-09-07T23:51:10.701Z,9.30
2017-09-07T23:53:37.893Z,8.80
2017-09-07T23:56:04.287Z,8.70
2017-09-07T23:58:30.758Z,8.70
